Time,TemperatureF,DewpointF,PressureIn,WindDirection,WindDirectionDegrees,WindSpeedMPH,WindSpeedGustMPH,Humidity,HourlyPrecipIn,Conditions,Clouds,dailyrainin,SolarRadiationWatts/m^2,SoftwareType,DateUTC
2013-01-20 00:04:00,33.7,30.2,29.73,SW,225,1.2,1.2,87,0.00,RA,OVC,0.00,0.0,WeatherDisplay:10.37,2013-01-20 00:04:00,
2013-01-20 00:09:00,33.8,30.3,29.73,East,83,1.2,0.0,87,0.00,RA,OVC,0.00,0.0,WeatherDisplay:10.37,2013-01-20 00:09:00,
2013-01-20 00:14:00,33.7,30.0,29.73,West,260,1.2,1.2,86,0.00,SCT,OVC,0.00,0.0,WeatherDisplay:10.37,2013-01-20 00:14:00,
2013-01-20 00:19:00,33.7,30.0,29.73,SE,138,1.2,1.2,86,0.00,SCT,OVC,0.00,0.0,WeatherDisplay:10.37,2013-01-20 00:19:00,
2013-01-20 00:24:00,33.6,29.9,29.73,SW,214,1.2,1.2,86,0.00,SCT,OVC,0.00,0.0,WeatherDisplay:10.37,2013-01-20 00:24:00,
2013-01-20 00:29:00,33.6,29.9,29.73,ESE,122,2.0,2.0,86,0.00,SCT,OVC,0.00,0.0,WeatherDisplay:10.37,2013-01-20 00:29:00,
2013-01-20 00:34:00,33.6,30.1,29.73,SE,139,1.2,1.2,87,0.00,SCT,OVC,0.00,0.0,WeatherDisplay:10.37,2013-01-20 00:34:00,
2013-01-20 00:40:00,33.5,30.0,29.72,WNW,283,0.0,0.0,87,0.00,SCT,OVC,0.00,0.0,WeatherDisplay:10.37,2013-01-20 00:40:00,
2013-01-20 00:45:00,33.5,29.8,29.72,WSW,243,1.2,1.2,86,0.00,SCT,OVC,0.00,0.0,WeatherDisplay:10.37,2013-01-20 00:45:00,
2013-01-20 00:50:00,33.5,29.8,29.72,ESE,111,1.2,1.2,86,0.00,SCT,OVC,0.00,0.0,WeatherDisplay:10.37,2013-01-20 00:50:00,
2013-01-20 00:55:00,33.5,29.8,29.72,NNE,33,1.2,1.2,86,0.00,SCT,OVC,0.00,0.0,WeatherDisplay:10.37,2013-01-20 00:55:00,
2013-01-20 01:00:00,33.5,29.8,29.72,SSW,211,1.2,1.2,86,0.00,SCT,OVC,0.00,0.0,WeatherDisplay:10.37,2013-01-20 01:00:00,
2013-01-20 01:05:00,33.5,29.8,29.72,NNW,328,1.2,1.2,86,0.00,FEW,OVC,0.00,0.0,WeatherDisplay:10.37,2013-01-20 01:05:00,
2013-01-20 01:11:00,33.5,29.8,29.72,NW,308,1.2,1.2,86,0.00,FEW,OVC,0.00,0.0,WeatherDisplay:10.37,2013-01-20 01:11:00,
2013-01-20 01:17:00,33.5,29.8,29.72,WSW,255,1.2,1.2,86,0.00,FEW,OVC,0.00,0.0,WeatherDisplay:10.37,2013-01-20 01:17:00,
2013-01-20 01:22:00,33.4,29.7,29.72,ESE,115,1.2,0.0,86,0.00,FEW,OVC,0.00,0.0,WeatherDisplay:10.37,2013-01-20 01:22:00,
2013-01-20 01:27:00,33.4,29.7,29.72,West,264,1.2,1.2,86,0.00,FEW,OVC,0.00,0.0,WeatherDisplay:10.37,2013-01-20 01:27:00,
2013-01-20 01:32:00,33.3,29.6,29.72,NW,312,1.2,1.2,86,0.00,FEW,OVC,0.00,0.0,WeatherDisplay:10.37,2013-01-20 01:32:00,
2013-01-20 01:37:00,33.4,29.4,29.72,SSE,159,1.2,1.2,85,0.00,FEW,OVC,0.00,0.0,WeatherDisplay:10.37,2013-01-20 01:37:00,
2013-01-20 01:42:00,33.5,29.5,29.71,WNW,284,1.2,0.0,85,0.00,FEW,OVC,0.00,0.0,WeatherDisplay:10.37,2013-01-20 01:42:00,
2013-01-20 01:48:00,33.5,29.5,29.71,West,276,1.2,1.2,85,0.00,FEW,OVC,0.00,0.0,WeatherDisplay:10.37,2013-01-20 01:48:00,
2013-01-20 01:54:00,33.5,29.5,29.71,SSE,158,2.3,2.3,85,0.00,FEW,OVC,0.00,0.0,WeatherDisplay:10.37,2013-01-20 01:54:00,
2013-01-20 01:59:00,33.5,29.5,29.71,NW,323,0.0,0.2,85,0.00,FEW,OVC,0.00,0.0,WeatherDisplay:10.37,2013-01-20 01:59:00,
2013-01-20 02:04:00,33.6,29.6,29.71,SE,143,1.2,1.2,85,0.00,FEW,OVC,0.00,0.0,WeatherDisplay:10.37,2013-01-20 02:04:00,
2013-01-20 02:09:00,33.5,29.5,29.71,ESE,119,1.2,1.2,85,0.00,FEW,OVC,0.00,0.0,WeatherDisplay:10.37,2013-01-20 02:09:00,
2013-01-20 02:14:00,33.5,29.5,29.71,SE,131,3.5,3.5,85,0.00,FEW,OVC,0.00,0.0,WeatherDisplay:10.37,2013-01-20 02:14:00,
2013-01-20 02:19:00,33.5,29.5,29.71,SSE,149,0.0,2.0,85,0.00,FEW,OVC,0.00,0.0,WeatherDisplay:10.37,2013-01-20 02:19:00,
2013-01-20 02:24:00,33.4,29.4,29.71,SSE,152,0.0,2.0,85,0.00,FEW,OVC,0.00,0.0,WeatherDisplay:10.37,2013-01-20 02:24:00,
2013-01-20 02:29:00,33.3,29.3,29.71,South,185,0.0,1.0,85,0.00,FEW,OVC,0.00,0.0,WeatherDisplay:10.37,2013-01-20 02:29:00,
2013-01-20 02:34:00,33.3,29.0,29.70,SW,229,1.0,2.0,84,0.00,FEW,OVC,0.00,0.0,WeatherDisplay:10.37,2013-01-20 02:34:00,
2013-01-20 02:39:00,33.3,29.0,29.70,SW,222,1.0,1.0,84,0.00,FEW,OVC,0.00,0.0,WeatherDisplay:10.37,2013-01-20 02:39:00,
2013-01-20 02:44:00,33.4,28.8,29.70,WSW,241,0.0,2.0,83,0.00,FEW,OVC,0.00,0.0,WeatherDisplay:10.37,2013-01-20 02:44:00,
2013-01-20 02:49:00,33.5,28.6,29.70,SSE,153,2.3,2.3,82,0.00,BKN,OVC,0.00,0.0,WeatherDisplay:10.37,2013-01-20 02:49:00,
2013-01-20 02:54:00,33.5,28.6,29.70,ESE,118,1.0,3.0,82,0.00,BKN,OVC,0.00,0.0,WeatherDisplay:10.37,2013-01-20 02:54:00,
2013-01-20 02:59:00,33.5,28.6,29.70,West,265,0.0,1.0,82,0.00,BKN,OVC,0.00,0.0,WeatherDisplay:10.37,2013-01-20 02:59:00,
2013-01-20 03:04:00,33.5,28.9,29.70,WNW,294,1.2,1.2,83,0.00,BKN,OVC,0.00,0.0,WeatherDisplay:10.37,2013-01-20 03:04:00,
2013-01-20 03:09:00,33.5,28.6,29.70,WSW,256,0.0,1.0,82,0.00,BKN,OVC,0.00,0.0,WeatherDisplay:10.37,2013-01-20 03:09:00,
2013-01-20 03:14:00,33.4,28.5,29.70,WSW,256,0.0,2.0,82,0.00,BKN,OVC,0.00,0.0,WeatherDisplay:10.37,2013-01-20 03:14:00,
2013-01-20 03:19:00,33.4,28.5,29.70,West,269,1.2,0.0,82,0.00,BKN,OVC,0.00,0.0,WeatherDisplay:10.37,2013-01-20 03:19:00,
2013-01-20 03:24:00,33.4,28.2,29.70,SSW,202,1.0,3.0,81,0.00,BKN,OVC,0.00,0.0,WeatherDisplay:10.37,2013-01-20 03:24:00,
2013-01-20 03:30:00,33.4,28.5,29.70,West,267,1.2,1.2,82,0.00,BKN,OVC,0.00,0.0,WeatherDisplay:10.37,2013-01-20 03:30:00,
2013-01-20 03:35:00,33.3,28.4,29.70,SW,217,2.3,2.3,82,0.00,BKN,OVC,0.00,0.0,WeatherDisplay:10.37,2013-01-20 03:35:00,
2013-01-20 03:40:00,33.3,28.1,29.70,SSW,211,0.0,0.0,81,0.00,BKN,OVC,0.00,0.0,WeatherDisplay:10.37,2013-01-20 03:40:00,
2013-01-20 03:45:00,33.3,28.1,29.70,SSW,211,1.2,1.2,81,0.00,BKN,OVC,0.00,0.0,WeatherDisplay:10.37,2013-01-20 03:45:00,
2013-01-20 03:50:00,33.3,28.1,29.70,ESE,117,2.0,2.0,81,0.00,OVC,,0.00,0.0,WeatherDisplay:10.37,2013-01-20 03:50:00,
2013-01-20 03:55:00,33.3,28.1,29.70,West,277,1.2,0.0,81,0.00,OVC,,0.00,0.0,WeatherDisplay:10.37,2013-01-20 03:55:00,
2013-01-20 04:00:00,33.3,28.1,29.70,SSE,154,1.2,1.2,81,0.00,OVC,,0.00,0.0,WeatherDisplay:10.37,2013-01-20 04:00:00,
2013-01-20 04:05:00,33.3,28.4,29.70,North,350,1.0,1.0,82,0.00,OVC,,0.00,0.0,WeatherDisplay:10.37,2013-01-20 04:05:00,
2013-01-20 04:10:00,33.2,28.3,29.70,SSE,150,1.2,1.2,82,0.00,OVC,,0.00,0.0,WeatherDisplay:10.37,2013-01-20 04:10:00,
2013-01-20 04:15:00,33.3,28.4,29.70,SE,129,3.5,3.5,82,0.00,OVC,,0.00,0.0,WeatherDisplay:10.37,2013-01-20 04:15:00,
2013-01-20 04:21:00,33.3,28.4,29.70,West,269,3.5,3.5,82,0.00,OVC,,0.00,0.0,WeatherDisplay:10.37,2013-01-20 04:21:00,
2013-01-20 04:27:00,33.3,28.4,29.70,West,262,3.5,3.5,82,0.00,OVC,,0.00,0.0,WeatherDisplay:10.37,2013-01-20 04:27:00,
2013-01-20 04:32:00,33.3,28.4,29.70,West,274,1.2,1.2,82,0.00,BKN,OVC,0.00,0.0,WeatherDisplay:10.37,2013-01-20 04:32:00,
2013-01-20 04:38:00,33.3,28.1,29.69,NNE,29,2.3,2.3,81,0.00,BKN,OVC,0.00,0.0,WeatherDisplay:10.37,2013-01-20 04:38:00,
2013-01-20 04:42:00,33.3,28.1,29.69,West,276,1.2,1.2,81,0.00,BKN,OVC,0.00,0.0,WeatherDisplay:10.37,2013-01-20 04:42:00,
2013-01-20 04:48:00,33.3,28.1,29.69,WSW,243,1.2,1.2,81,0.00,BKN,OVC,0.00,0.0,WeatherDisplay:10.37,2013-01-20 04:48:00,
2013-01-20 04:53:00,33.3,28.1,29.70,SSW,203,1.2,1.2,81,0.00,BKN,OVC,0.00,0.0,WeatherDisplay:10.37,2013-01-20 04:53:00,
2013-01-20 04:58:00,33.2,28.0,29.70,NW,314,1.2,0.0,81,0.00,BKN,OVC,0.00,0.0,WeatherDisplay:10.37,2013-01-20 04:58:00,
2013-01-20 05:01:00,33.2,28.0,29.70,WNW,287,1.2,1.2,81,0.00,BKN,OVC,0.00,0.0,WeatherDisplay:10.37,2013-01-20 05:01:00,
2013-01-20 05:02:00,33.2,28.0,29.70,WSW,244,1.2,1.2,81,0.00,BKN,OVC,0.00,0.0,WeatherDisplay:10.37,2013-01-20 05:02:00,
2013-01-20 05:03:00,33.2,28.0,29.70,North,6,0.0,0.0,81,0.00,BKN,OVC,0.00,0.0,WeatherDisplay:10.37,2013-01-20 05:03:00,
2013-01-20 05:04:00,33.1,27.9,29.70,East,101,1.2,1.2,81,0.00,BKN,OVC,0.00,0.0,WeatherDisplay:10.37,2013-01-20 05:04:00,
2013-01-20 05:09:00,33.1,28.2,29.70,WSW,253,1.2,1.2,82,0.00,BKN,OVC,0.00,0.0,WeatherDisplay:10.37,2013-01-20 05:09:00,
2013-01-20 05:14:00,33.0,28.1,29.70,WSW,243,1.0,0.0,82,0.00,BKN,OVC,0.00,0.0,WeatherDisplay:10.37,2013-01-20 05:14:00,
2013-01-20 05:19:00,33.0,27.8,29.70,SSE,159,2.3,2.3,81,0.00,BKN,OVC,0.00,0.0,WeatherDisplay:10.37,2013-01-20 05:19:00,
2013-01-20 05:24:00,33.0,27.8,29.70,WSW,249,0.0,0.0,81,0.00,BKN,OVC,0.00,0.0,WeatherDisplay:10.37,2013-01-20 05:24:00,
2013-01-20 05:29:00,33.0,28.1,29.70,WSW,253,1.2,1.2,82,0.00,BKN,OVC,0.00,0.0,WeatherDisplay:10.37,2013-01-20 05:29:00,
2013-01-20 05:34:00,33.0,28.1,29.70,SSW,203,1.2,1.2,82,0.00,BKN,OVC,0.00,0.0,WeatherDisplay:10.37,2013-01-20 05:34:00,
2013-01-20 05:39:00,33.0,28.1,29.70,SSE,167,1.2,1.2,82,0.00,BKN,OVC,0.00,0.0,WeatherDisplay:10.37,2013-01-20 05:39:00,
2013-01-20 05:44:00,33.0,28.4,29.70,West,259,1.2,0.0,83,0.00,BKN,OVC,0.00,0.0,WeatherDisplay:10.37,2013-01-20 05:44:00,
2013-01-20 05:49:00,32.9,28.3,29.70,WSW,240,1.2,1.2,83,0.00,BKN,OVC,0.00,0.0,WeatherDisplay:10.37,2013-01-20 05:49:00,
2013-01-20 05:54:00,32.9,28.3,29.69,SW,226,1.2,1.2,83,0.00,BKN,OVC,0.00,0.0,WeatherDisplay:10.37,2013-01-20 05:54:00,
2013-01-20 05:59:00,32.9,28.3,29.69,WSW,252,1.2,0.0,83,0.00,BKN,OVC,0.00,0.0,WeatherDisplay:10.37,2013-01-20 05:59:00,
2013-01-20 06:04:00,32.9,28.3,29.69,West,260,0.0,0.0,83,0.00,BKN,OVC,0.00,0.0,WeatherDisplay:10.37,2013-01-20 06:04:00,
2013-01-20 06:09:00,32.9,28.3,29.69,WNW,296,2.3,2.3,83,0.00,BKN,OVC,0.00,0.0,WeatherDisplay:10.37,2013-01-20 06:09:00,
2013-01-20 06:14:00,32.9,28.3,29.69,WNW,300,0.0,0.1,83,0.00,BKN,OVC,0.00,0.0,WeatherDisplay:10.37,2013-01-20 06:14:00,
2013-01-20 06:19:00,32.9,28.0,29.69,ESE,108,1.0,1.0,82,0.00,BKN,OVC,0.00,0.0,WeatherDisplay:10.37,2013-01-20 06:19:00,
2013-01-20 06:24:00,32.9,28.0,29.69,WNW,284,1.2,1.2,82,0.00,BKN,OVC,0.00,0.0,WeatherDisplay:10.37,2013-01-20 06:24:00,
2013-01-20 06:29:00,32.9,28.0,29.69,South,186,1.2,1.2,82,0.00,BKN,OVC,0.00,0.0,WeatherDisplay:10.37,2013-01-20 06:29:00,
2013-01-20 06:34:00,32.9,28.0,29.69,East,93,1.2,1.2,82,0.00,BKN,OVC,0.00,0.0,WeatherDisplay:10.37,2013-01-20 06:34:00,
2013-01-20 06:39:00,32.9,27.7,29.69,North,6,1.2,1.2,81,0.00,BKN,OVC,0.00,0.0,WeatherDisplay:10.37,2013-01-20 06:39:00,
2013-01-20 06:44:00,32.9,27.4,29.69,North,6,1.2,1.2,80,0.00,BKN,OVC,0.00,0.0,WeatherDisplay:10.37,2013-01-20 06:44:00,
2013-01-20 06:49:00,33.0,27.5,29.69,SSE,148,1.2,1.2,80,0.00,BKN,OVC,0.00,0.0,WeatherDisplay:10.37,2013-01-20 06:49:00,
2013-01-20 06:54:00,32.9,27.4,29.69,ESE,115,2.0,2.0,80,0.00,BKN,OVC,0.00,0.0,WeatherDisplay:10.37,2013-01-20 06:54:00,
2013-01-20 06:59:00,32.9,27.7,29.69,SE,124,1.2,1.2,81,0.00,BKN,OVC,0.00,0.0,WeatherDisplay:10.37,2013-01-20 06:59:00,
2013-01-20 07:04:00,32.8,27.6,29.69,SE,143,1.2,1.2,81,0.00,-SN,OVC,0.00,0.0,WeatherDisplay:10.37,2013-01-20 07:04:00,
2013-01-20 07:09:00,32.8,27.6,29.69,SSE,165,1.0,1.0,81,0.00,-SN,OVC,0.00,0.0,WeatherDisplay:10.37,2013-01-20 07:09:00,
2013-01-20 07:14:00,32.7,27.8,29.69,SE,125,2.3,2.3,82,0.00,-SN,OVC,0.00,0.0,WeatherDisplay:10.37,2013-01-20 07:14:00,
2013-01-20 07:19:00,32.7,27.8,29.69,ESE,110,1.2,1.2,82,0.00,-SN,OVC,0.00,0.0,WeatherDisplay:10.37,2013-01-20 07:19:00,
2013-01-20 07:24:00,32.6,28.0,29.69,West,264,0.0,0.1,83,0.00,-SN,OVC,0.00,0.0,WeatherDisplay:10.37,2013-01-20 07:24:00,
2013-01-20 07:29:00,32.5,27.9,29.69,SE,136,1.2,1.2,83,0.00,-SN,OVC,0.00,0.0,WeatherDisplay:10.37,2013-01-20 07:29:00,
2013-01-20 07:34:00,32.5,27.9,29.69,West,264,1.2,1.2,83,0.00,-SN,OVC,0.00,0.0,WeatherDisplay:10.37,2013-01-20 07:34:00,
2013-01-20 07:39:00,32.5,27.9,29.68,NNW,330,2.3,2.3,83,0.00,-SN,OVC,0.00,0.0,WeatherDisplay:10.37,2013-01-20 07:39:00,
2013-01-20 07:44:00,32.5,27.6,29.68,ESE,113,0.0,0.2,82,0.00,-SN,OVC,0.00,0.0,WeatherDisplay:10.37,2013-01-20 07:44:00,
2013-01-20 07:49:00,32.5,27.6,29.68,ESE,115,1.2,1.2,82,0.00,-SN,OVC,0.00,0.0,WeatherDisplay:10.37,2013-01-20 07:49:00,
2013-01-20 07:54:00,32.6,27.7,29.68,South,176,1.2,0.0,82,0.00,-SN,OVC,0.00,0.0,WeatherDisplay:10.37,2013-01-20 07:54:00,
2013-01-20 07:59:00,32.7,27.5,29.68,SW,214,1.0,0.0,81,0.00,-SN,OVC,0.00,0.0,WeatherDisplay:10.37,2013-01-20 07:59:00,
2013-01-20 08:04:00,32.7,27.5,29.68,South,180,1.2,0.0,81,0.00,-SN,OVC,0.00,0.0,WeatherDisplay:10.37,2013-01-20 08:04:00,
2013-01-20 08:09:00,32.8,27.3,29.68,NW,309,1.2,1.2,80,0.00,-SN,OVC,0.00,0.0,WeatherDisplay:10.37,2013-01-20 08:09:00,
2013-01-20 08:14:00,32.8,27.3,29.68,WSW,252,1.2,1.2,80,0.00,-SN,OVC,0.00,0.0,WeatherDisplay:10.37,2013-01-20 08:14:00,
2013-01-20 08:19:00,32.9,27.7,29.68,West,276,0.0,0.0,81,0.00,-SN,OVC,0.00,0.0,WeatherDisplay:10.37,2013-01-20 08:19:00,
2013-01-20 08:24:00,32.9,27.7,29.68,ESE,113,2.3,2.3,81,0.00,-SN,OVC,0.00,0.0,WeatherDisplay:10.37,2013-01-20 08:24:00,
2013-01-20 08:29:00,32.9,27.7,29.68,WSW,248,1.2,1.2,81,0.00,-SN,OVC,0.00,0.0,WeatherDisplay:10.37,2013-01-20 08:29:00,
2013-01-20 08:34:00,32.9,28.0,29.68,ENE,77,1.2,0.0,82,0.00,-SN,OVC,0.00,0.0,WeatherDisplay:10.37,2013-01-20 08:34:00,
2013-01-20 08:39:00,32.8,27.9,29.68,SE,124,1.2,1.2,82,0.00,-SN,OVC,0.00,0.0,WeatherDisplay:10.37,2013-01-20 08:39:00,
2013-01-20 08:44:00,32.8,27.9,29.68,South,188,1.2,0.0,82,0.00,-SN,OVC,0.00,0.0,WeatherDisplay:10.37,2013-01-20 08:44:00,
2013-01-20 08:49:00,32.8,27.9,29.67,SE,132,1.2,1.2,82,0.00,-SN,OVC,0.00,0.0,WeatherDisplay:10.37,2013-01-20 08:49:00,
2013-01-20 08:54:00,32.8,27.6,29.67,NNW,335,2.0,2.0,81,0.00,-SN,OVC,0.00,0.0,WeatherDisplay:10.37,2013-01-20 08:54:00,
2013-01-20 08:59:00,32.9,27.7,29.67,WSW,257,2.3,2.3,81,0.00,-SN,OVC,0.00,0.0,WeatherDisplay:10.37,2013-01-20 08:59:00,
2013-01-20 09:04:00,33.0,27.8,29.67,WNW,295,3.5,3.5,81,0.00,BKN,OVC,0.00,0.0,WeatherDisplay:10.37,2013-01-20 09:04:00,
2013-01-20 09:09:00,33.0,27.8,29.67,NW,316,1.2,1.2,81,0.00,BKN,OVC,0.00,0.0,WeatherDisplay:10.37,2013-01-20 09:09:00,
2013-01-20 09:14:00,33.0,27.8,29.67,NNW,332,2.3,2.3,81,0.00,BKN,OVC,0.00,0.0,WeatherDisplay:10.37,2013-01-20 09:14:00,
2013-01-20 09:19:00,33.0,28.1,29.67,SSE,149,1.2,1.2,82,0.00,BKN,OVC,0.00,0.0,WeatherDisplay:10.37,2013-01-20 09:19:00,
2013-01-20 09:24:00,33.0,28.1,29.67,West,280,2.3,2.3,82,0.00,BKN,OVC,0.00,0.0,WeatherDisplay:10.37,2013-01-20 09:24:00,
2013-01-20 09:29:00,32.9,28.3,29.67,SSW,207,2.3,2.3,83,0.00,BKN,OVC,0.00,0.0,WeatherDisplay:10.37,2013-01-20 09:29:00,
2013-01-20 09:34:00,32.9,28.6,29.67,SE,146,1.2,0.0,84,0.00,BKN,OVC,0.00,0.0,WeatherDisplay:10.37,2013-01-20 09:34:00,
2013-01-20 09:39:00,32.8,28.5,29.67,WSW,239,1.2,1.2,84,0.00,BKN,OVC,0.00,0.0,WeatherDisplay:10.37,2013-01-20 09:39:00,
2013-01-20 09:44:00,32.8,28.8,29.67,WNW,296,1.2,1.2,85,0.00,BKN,OVC,0.00,0.0,WeatherDisplay:10.37,2013-01-20 09:44:00,
2013-01-20 09:49:00,32.8,28.8,29.67,SW,235,1.2,1.2,85,0.00,BKN,OVC,0.00,0.0,WeatherDisplay:10.37,2013-01-20 09:49:00,
2013-01-20 09:54:00,32.8,28.8,29.67,WNW,287,0.0,1.0,85,0.00,BKN,OVC,0.00,0.0,WeatherDisplay:10.37,2013-01-20 09:54:00,
2013-01-20 09:59:00,32.7,29.0,29.67,North,9,0.0,0.0,86,0.00,BKN,OVC,0.00,0.0,WeatherDisplay:10.37,2013-01-20 09:59:00,
2013-01-20 10:04:00,32.7,29.0,29.67,WSW,242,1.0,2.0,86,0.00,BKN,OVC,0.00,0.0,WeatherDisplay:10.37,2013-01-20 10:04:00,
2013-01-20 10:09:00,32.8,29.1,29.67,West,281,1.2,0.0,86,0.00,BKN,OVC,0.00,0.0,WeatherDisplay:10.37,2013-01-20 10:09:00,
2013-01-20 10:14:00,32.7,29.0,29.67,SE,133,1.2,1.2,86,0.00,BKN,OVC,0.00,0.0,WeatherDisplay:10.37,2013-01-20 10:14:00,
2013-01-20 10:19:00,32.8,29.1,29.67,SE,124,1.2,1.2,86,0.00,BKN,OVC,0.00,0.0,WeatherDisplay:10.37,2013-01-20 10:19:00,
2013-01-20 10:24:00,32.8,29.1,29.67,NW,307,1.2,0.0,86,0.00,BKN,OVC,0.00,0.0,WeatherDisplay:10.37,2013-01-20 10:24:00,
2013-01-20 10:29:00,32.9,28.9,29.67,WSW,248,1.2,1.2,85,0.00,BKN,OVC,0.00,0.0,WeatherDisplay:10.37,2013-01-20 10:29:00,
2013-01-20 10:34:00,33.0,29.0,29.67,West,281,1.2,0.0,85,0.00,BKN,OVC,0.00,0.0,WeatherDisplay:10.37,2013-01-20 10:34:00,
2013-01-20 10:39:00,33.1,29.1,29.67,SW,222,0.0,2.0,85,0.00,BKN,OVC,0.00,0.0,WeatherDisplay:10.37,2013-01-20 10:39:00,
2013-01-20 10:44:00,33.1,29.1,29.67,SW,231,1.0,1.0,85,0.00,BKN,OVC,0.00,0.0,WeatherDisplay:10.37,2013-01-20 10:44:00,
2013-01-20 10:49:00,33.2,28.9,29.66,West,281,1.2,1.2,84,0.00,BKN,OVC,0.00,0.0,WeatherDisplay:10.37,2013-01-20 10:49:00,
2013-01-20 10:54:00,33.2,28.9,29.66,WNW,292,1.2,1.2,84,0.00,BKN,OVC,0.00,0.0,WeatherDisplay:10.37,2013-01-20 10:54:00,
2013-01-20 10:59:00,33.3,28.7,29.66,SSW,204,1.2,0.0,83,0.00,BKN,OVC,0.00,0.0,WeatherDisplay:10.37,2013-01-20 10:59:00,
2013-01-20 11:04:00,33.4,28.8,29.65,WSW,242,0.0,1.0,83,0.00,BKN,OVC,0.00,0.0,WeatherDisplay:10.37,2013-01-20 11:04:00,
2013-01-20 11:09:00,33.5,28.6,29.65,West,263,2.3,2.3,82,0.00,BKN,OVC,0.00,0.0,WeatherDisplay:10.37,2013-01-20 11:09:00,
2013-01-20 11:14:00,33.6,28.1,29.65,WNW,284,0.0,0.1,80,0.00,BKN,OVC,0.00,0.0,WeatherDisplay:10.37,2013-01-20 11:14:00,
2013-01-20 11:19:00,33.7,28.2,29.65,West,268,0.0,2.0,80,0.00,BKN,OVC,0.00,0.0,WeatherDisplay:10.37,2013-01-20 11:19:00,
2013-01-20 11:24:00,33.7,28.2,29.65,West,261,0.0,1.0,80,0.00,BKN,OVC,0.00,0.0,WeatherDisplay:10.37,2013-01-20 11:24:00,
2013-01-20 11:29:00,33.8,28.0,29.65,SSE,159,1.0,2.0,79,0.00,BKN,OVC,0.00,0.0,WeatherDisplay:10.37,2013-01-20 11:29:00,
2013-01-20 11:34:00,33.9,28.1,29.65,SSE,157,0.0,2.0,79,0.00,BKN,OVC,0.00,0.0,WeatherDisplay:10.37,2013-01-20 11:34:00,
2013-01-20 11:39:00,33.9,28.1,29.65,SE,145,1.0,5.0,79,0.00,BKN,OVC,0.00,0.0,WeatherDisplay:10.37,2013-01-20 11:39:00,
2013-01-20 11:44:00,33.9,28.1,29.64,SW,221,0.0,2.0,79,0.00,BKN,OVC,0.00,0.0,WeatherDisplay:10.37,2013-01-20 11:44:00,
2013-01-20 11:49:00,33.8,28.0,29.64,ESE,117,1.2,1.2,79,0.00,BKN,OVC,0.00,0.0,WeatherDisplay:10.37,2013-01-20 11:49:00,
2013-01-20 11:54:00,33.8,28.3,29.64,ESE,110,1.2,1.2,80,0.00,BKN,OVC,0.00,0.0,WeatherDisplay:10.37,2013-01-20 11:54:00,
2013-01-20 11:59:00,33.8,28.3,29.64,SE,138,1.0,4.0,80,0.00,BKN,OVC,0.00,0.0,WeatherDisplay:10.37,2013-01-20 11:59:00,
2013-01-20 12:04:00,33.8,28.3,29.64,SE,127,3.0,3.0,80,0.00,BKN,OVC,0.00,0.0,WeatherDisplay:10.37,2013-01-20 12:04:00,
2013-01-20 12:09:00,33.7,28.5,29.64,East,86,1.2,0.0,81,0.00,BKN,OVC,0.00,0.0,WeatherDisplay:10.37,2013-01-20 12:09:00,
2013-01-20 12:14:00,33.7,28.5,29.64,SE,131,0.0,2.0,81,0.00,BKN,OVC,0.00,0.0,WeatherDisplay:10.37,2013-01-20 12:14:00,
2013-01-20 12:19:00,33.6,28.7,29.64,SSE,150,3.5,3.5,82,0.00,BKN,OVC,0.00,0.0,WeatherDisplay:10.37,2013-01-20 12:19:00,
2013-01-20 12:24:00,33.5,28.9,29.63,SE,125,0.0,1.0,83,0.00,BKN,OVC,0.00,0.0,WeatherDisplay:10.37,2013-01-20 12:24:00,
2013-01-20 12:29:00,33.4,29.1,29.63,West,262,0.0,2.0,84,0.00,BKN,OVC,0.00,0.0,WeatherDisplay:10.37,2013-01-20 12:29:00,
2013-01-20 12:34:00,33.4,29.1,29.63,West,262,0.0,2.0,84,0.00,BKN,OVC,0.00,0.0,WeatherDisplay:10.37,2013-01-20 12:34:00,
2013-01-20 12:40:00,33.4,29.1,29.63,South,187,0.0,0.0,84,0.00,BKN,OVC,0.00,0.0,WeatherDisplay:10.37,2013-01-20 12:40:00,
2013-01-20 12:45:00,33.4,29.1,29.63,SSW,210,0.0,1.0,84,0.00,BKN,OVC,0.00,0.0,WeatherDisplay:10.37,2013-01-20 12:45:00,
2013-01-20 12:49:00,33.5,29.2,29.62,SSE,147,0.0,0.0,84,0.00,BKN,OVC,0.00,0.0,WeatherDisplay:10.37,2013-01-20 12:49:00,
2013-01-20 12:54:00,33.5,29.2,29.62,SW,222,1.2,0.0,84,0.00,BKN,OVC,0.00,0.0,WeatherDisplay:10.37,2013-01-20 12:54:00,
2013-01-20 12:59:00,33.6,29.3,29.62,SW,221,0.0,0.0,84,0.00,BKN,OVC,0.00,0.0,WeatherDisplay:10.37,2013-01-20 12:59:00,
2013-01-20 13:04:00,33.6,29.0,29.62,SSE,158,0.0,0.1,83,0.00,OVC,,0.00,0.0,WeatherDisplay:10.37,2013-01-20 13:04:00,
2013-01-20 13:09:00,33.7,29.1,29.62,WSW,253,0.0,0.0,83,0.00,OVC,,0.00,0.0,WeatherDisplay:10.37,2013-01-20 13:09:00,
2013-01-20 13:14:00,33.8,29.2,29.62,South,171,0.0,1.0,83,0.00,OVC,OVC,0.00,0.0,WeatherDisplay:10.37,2013-01-20 13:14:00,
2013-01-20 13:19:00,33.9,29.0,29.62,SE,138,1.2,0.0,82,0.00,OVC,,0.00,0.0,WeatherDisplay:10.37,2013-01-20 13:19:00,
2013-01-20 13:24:00,34.0,29.1,29.62,SE,128,0.0,1.0,82,0.00,OVC,OVC,0.00,0.0,WeatherDisplay:10.37,2013-01-20 13:24:00,
2013-01-20 13:29:00,34.0,29.1,29.62,SSE,155,0.0,1.0,82,0.00,OVC,OVC,0.00,0.0,WeatherDisplay:10.37,2013-01-20 13:29:00,
2013-01-20 13:34:00,34.0,29.1,29.62,South,177,0.0,1.0,82,0.00,BKN,OVC,0.00,0.0,WeatherDisplay:10.37,2013-01-20 13:34:00,
2013-01-20 13:39:00,34.1,29.2,29.62,South,191,0.0,1.0,82,0.00,BKN,OVC,0.00,0.0,WeatherDisplay:10.37,2013-01-20 13:39:00,
2013-01-20 13:45:00,34.1,29.2,29.62,SE,128,2.3,0.0,82,0.00,BKN,OVC,0.00,0.0,WeatherDisplay:10.37,2013-01-20 13:45:00,
2013-01-20 13:50:00,34.1,29.5,29.62,West,270,1.2,0.0,83,0.00,BKN,OVC,0.00,0.0,WeatherDisplay:10.37,2013-01-20 13:50:00,
2013-01-20 13:55:00,34.1,29.5,29.61,North,350,1.2,0.0,83,0.00,BKN,OVC,0.00,0.0,WeatherDisplay:10.37,2013-01-20 13:55:00,
2013-01-20 14:00:00,34.2,29.6,29.61,WNW,298,0.0,0.0,83,0.00,BKN,OVC,0.00,0.0,WeatherDisplay:10.37,2013-01-20 14:00:00,
2013-01-20 14:05:00,34.2,29.6,29.62,NW,307,0.0,0.0,83,0.00,BKN,OVC,0.00,0.0,WeatherDisplay:10.37,2013-01-20 14:05:00,
2013-01-20 14:10:00,34.2,29.9,29.62,ESE,120,1.2,1.2,84,0.00,BKN,OVC,0.00,0.0,WeatherDisplay:10.37,2013-01-20 14:10:00,
2013-01-20 14:15:00,34.1,30.1,29.61,ESE,117,1.2,1.2,85,0.00,BKN,OVC,0.00,0.0,WeatherDisplay:10.37,2013-01-20 14:15:00,
2013-01-20 14:20:00,34.1,30.1,29.62,SE,133,3.5,3.5,85,0.00,BKN,OVC,0.00,0.0,WeatherDisplay:10.37,2013-01-20 14:20:00,
2013-01-20 14:25:00,33.9,30.2,29.61,ESE,121,0.0,0.0,86,0.00,BKN,OVC,0.00,0.0,WeatherDisplay:10.37,2013-01-20 14:25:00,
2013-01-20 14:30:00,33.8,30.3,29.61,SSE,153,0.0,0.0,87,0.00,BKN,OVC,0.00,0.0,WeatherDisplay:10.37,2013-01-20 14:30:00,
2013-01-20 14:35:00,33.8,30.3,29.61,SSW,212,1.2,0.0,87,0.00,BKN,OVC,0.00,0.0,WeatherDisplay:10.37,2013-01-20 14:35:00,
2013-01-20 14:40:00,33.7,30.2,29.61,SSE,154,1.2,1.2,87,0.00,BKN,OVC,0.00,0.0,WeatherDisplay:10.37,2013-01-20 14:40:00,
2013-01-20 14:45:00,33.8,30.3,29.61,SE,134,1.2,1.2,87,0.00,BKN,OVC,0.00,0.0,WeatherDisplay:10.37,2013-01-20 14:45:00,
2013-01-20 14:50:00,33.8,30.3,29.61,SE,146,0.0,0.0,87,0.00,OVC,,0.00,0.0,WeatherDisplay:10.37,2013-01-20 14:50:00,
2013-01-20 14:55:00,33.8,30.1,29.61,SE,145,0.0,0.0,86,0.00,OVC,,0.00,0.0,WeatherDisplay:10.37,2013-01-20 14:55:00,
2013-01-20 15:00:00,33.9,30.2,29.61,WSW,253,0.0,0.0,86,0.00,OVC,,0.00,0.0,WeatherDisplay:10.37,2013-01-20 15:00:00,
2013-01-20 15:05:00,33.8,30.1,29.61,SE,134,0.0,0.0,86,0.00,OVC,,0.00,0.0,WeatherDisplay:10.37,2013-01-20 15:05:00,
2013-01-20 15:10:00,33.8,30.1,29.61,NE,37,0.0,0.0,86,0.00,OVC,,0.00,0.0,WeatherDisplay:10.37,2013-01-20 15:10:00,
2013-01-20 15:15:00,33.8,30.1,29.61,ESE,111,0.0,0.0,86,0.00,OVC,,0.00,0.0,WeatherDisplay:10.37,2013-01-20 15:15:00,
2013-01-20 15:20:00,33.8,30.1,29.61,SE,129,1.2,1.2,86,0.00,OVC,,0.00,0.0,WeatherDisplay:10.37,2013-01-20 15:20:00,
2013-01-20 15:25:00,33.9,30.2,29.61,SE,131,1.2,1.2,86,0.00,OVC,,0.00,0.0,WeatherDisplay:10.37,2013-01-20 15:25:00,
2013-01-20 15:30:00,33.9,30.2,29.60,SSW,203,1.2,1.2,86,0.00,OVC,,0.00,0.0,WeatherDisplay:10.37,2013-01-20 15:30:00,
2013-01-20 15:35:00,33.9,30.2,29.61,SW,215,0.0,0.0,86,0.00,OVC,,0.00,0.0,WeatherDisplay:10.37,2013-01-20 15:35:00,
2013-01-20 15:40:00,33.9,30.2,29.61,SW,225,0.0,0.0,86,0.00,OVC,,0.00,0.0,WeatherDisplay:10.37,2013-01-20 15:40:00,
2013-01-20 15:45:00,33.9,30.2,29.60,SE,127,0.0,0.0,86,0.00,OVC,,0.00,0.0,WeatherDisplay:10.37,2013-01-20 15:45:00,
2013-01-20 15:50:00,33.9,30.2,29.60,SE,136,1.2,1.2,86,0.00,OVC,,0.00,0.0,WeatherDisplay:10.37,2013-01-20 15:50:00,
2013-01-20 15:55:00,33.9,29.9,29.60,SE,129,1.2,1.2,85,0.00,OVC,,0.00,0.0,WeatherDisplay:10.37,2013-01-20 15:55:00,
2013-01-20 16:00:00,34.0,30.0,29.60,SE,143,1.2,1.2,85,0.00,OVC,,0.00,0.0,WeatherDisplay:10.37,2013-01-20 16:00:00,
2013-01-20 16:05:00,34.0,30.0,29.60,SW,229,1.2,1.2,85,0.00,OVC,,0.00,0.0,WeatherDisplay:10.37,2013-01-20 16:05:00,
2013-01-20 16:10:00,34.0,29.7,29.60,ESE,120,2.0,2.0,84,0.00,OVC,,0.00,0.0,WeatherDisplay:10.37,2013-01-20 16:10:00,
2013-01-20 16:15:00,34.0,29.7,29.60,SE,128,1.2,1.2,84,0.00,OVC,,0.00,0.0,WeatherDisplay:10.37,2013-01-20 16:15:00,
2013-01-20 16:20:00,34.1,29.8,29.60,SW,214,1.2,1.2,84,0.00,OVC,,0.00,0.0,WeatherDisplay:10.37,2013-01-20 16:20:00,
2013-01-20 16:25:00,34.1,29.8,29.60,ESE,108,1.2,1.2,84,0.00,OVC,,0.00,0.0,WeatherDisplay:10.37,2013-01-20 16:25:00,
2013-01-20 16:30:00,34.1,29.8,29.60,South,180,3.5,3.5,84,0.00,OVC,,0.00,0.0,WeatherDisplay:10.37,2013-01-20 16:30:00,
2013-01-20 16:35:00,34.1,29.8,29.60,SE,134,0.0,0.2,84,0.00,OVC,,0.00,0.0,WeatherDisplay:10.37,2013-01-20 16:35:00,
2013-01-20 16:40:00,34.0,29.7,29.60,ESE,122,3.5,0.0,84,0.00,OVC,,0.00,0.0,WeatherDisplay:10.37,2013-01-20 16:40:00,
2013-01-20 16:45:00,34.0,29.7,29.60,West,260,1.2,0.0,84,0.00,OVC,,0.00,0.0,WeatherDisplay:10.37,2013-01-20 16:45:00,
2013-01-20 16:50:00,33.9,29.6,29.60,ESE,120,2.3,2.3,84,0.00,OVC,,0.00,0.0,WeatherDisplay:10.37,2013-01-20 16:50:00,
2013-01-20 16:55:00,33.9,29.6,29.60,ESE,120,2.3,2.3,84,0.00,OVC,,0.00,0.0,WeatherDisplay:10.37,2013-01-20 16:55:00,
2013-01-20 17:00:00,33.9,29.6,29.60,ESE,114,2.3,2.3,84,0.00,OVC,,0.00,0.0,WeatherDisplay:10.37,2013-01-20 17:00:00,
2013-01-20 17:05:00,33.9,29.6,29.60,SE,129,1.2,1.2,84,0.00,OVC,,0.00,0.0,WeatherDisplay:10.37,2013-01-20 17:05:00,
2013-01-20 17:10:00,33.8,29.8,29.60,ESE,122,1.2,1.2,85,0.00,OVC,,0.00,0.0,WeatherDisplay:10.37,2013-01-20 17:10:00,
2013-01-20 17:15:00,33.7,29.7,29.59,West,267,2.3,2.3,85,0.00,OVC,,0.00,0.0,WeatherDisplay:10.37,2013-01-20 17:15:00,
2013-01-20 17:20:00,33.7,29.7,29.59,SE,132,1.2,1.2,85,0.00,OVC,,0.00,0.0,WeatherDisplay:10.37,2013-01-20 17:20:00,
2013-01-20 17:25:00,33.7,30.0,29.59,NW,319,3.5,3.5,86,0.00,OVC,,0.00,0.0,WeatherDisplay:10.37,2013-01-20 17:25:00,
2013-01-20 17:30:00,33.6,29.9,29.59,SSW,208,3.5,3.5,86,0.00,OVC,,0.00,0.0,WeatherDisplay:10.37,2013-01-20 17:30:00,
2013-01-20 17:35:00,33.5,29.8,29.59,WNW,298,0.0,0.0,86,0.00,OVC,,0.00,0.0,WeatherDisplay:10.37,2013-01-20 17:35:00,
2013-01-20 17:40:00,33.5,29.8,29.59,NW,317,0.0,0.0,86,0.00,OVC,,0.00,0.0,WeatherDisplay:10.37,2013-01-20 17:40:00,
2013-01-20 17:45:00,33.5,29.8,29.59,SE,129,2.0,2.0,86,0.00,OVC,,0.00,0.0,WeatherDisplay:10.37,2013-01-20 17:45:00,
2013-01-20 17:50:00,33.6,29.9,29.58,WSW,240,1.2,1.2,86,0.00,-SN,OVC,0.00,0.0,WeatherDisplay:10.37,2013-01-20 17:50:00,
2013-01-20 17:55:00,33.7,29.7,29.58,ESE,118,1.2,0.0,85,0.00,-SN,OVC,0.00,0.0,WeatherDisplay:10.37,2013-01-20 17:55:00,
2013-01-20 18:00:00,33.8,29.5,29.58,SSE,150,2.3,2.3,84,0.00,-SN,OVC,0.00,0.0,WeatherDisplay:10.37,2013-01-20 18:00:00,
2013-01-20 18:05:00,33.9,29.3,29.58,ENE,65,3.5,3.5,83,0.00,-SN,OVC,0.00,0.0,WeatherDisplay:10.37,2013-01-20 18:05:00,
2013-01-20 18:10:00,34.0,29.4,29.58,SE,135,4.0,4.0,83,0.00,-SN,OVC,0.00,0.0,WeatherDisplay:10.37,2013-01-20 18:10:00,
2013-01-20 18:15:00,34.1,29.2,29.58,East,86,2.3,2.3,82,0.00,-SN,OVC,0.00,0.0,WeatherDisplay:10.37,2013-01-20 18:15:00,
2013-01-20 18:21:00,34.2,29.3,29.58,SE,127,1.2,1.2,82,0.00,-SN,OVC,0.00,0.0,WeatherDisplay:10.37,2013-01-20 18:21:00,
2013-01-20 18:26:00,34.2,29.0,29.58,WSW,238,3.5,3.5,81,0.00,-SN,OVC,0.00,0.0,WeatherDisplay:10.37,2013-01-20 18:26:00,
2013-01-20 18:31:00,34.3,28.8,29.58,SE,131,2.3,2.3,80,0.00,OVC,,0.00,0.0,WeatherDisplay:10.37,2013-01-20 18:31:00,
2013-01-20 18:36:00,34.4,28.9,29.58,SW,226,3.5,3.5,80,0.00,OVC,,0.00,0.0,WeatherDisplay:10.37,2013-01-20 18:36:00,
2013-01-20 18:41:00,34.4,28.9,29.58,ENE,67,1.2,0.0,80,0.00,OVC,,0.00,0.0,WeatherDisplay:10.37,2013-01-20 18:41:00,
2013-01-20 18:46:00,34.4,28.9,29.58,SE,134,2.3,2.3,80,0.00,OVC,,0.00,0.0,WeatherDisplay:10.37,2013-01-20 18:46:00,
2013-01-20 18:51:00,34.3,28.8,29.58,East,97,1.2,0.0,80,0.00,OVC,,0.00,0.0,WeatherDisplay:10.37,2013-01-20 18:51:00,
2013-01-20 18:56:00,34.3,28.8,29.58,ESE,113,3.0,3.0,80,0.00,OVC,,0.00,0.0,WeatherDisplay:10.37,2013-01-20 18:56:00,
2013-01-20 19:01:00,34.3,29.1,29.58,WNW,301,1.2,1.2,81,0.00,-SN,OVC,0.00,0.0,WeatherDisplay:10.37,2013-01-20 19:01:00,
2013-01-20 19:06:00,34.1,28.9,29.58,SE,140,2.3,2.3,81,0.00,-SN,OVC,0.00,0.0,WeatherDisplay:10.37,2013-01-20 19:06:00,
2013-01-20 19:11:00,34.0,28.8,29.58,SE,131,2.3,2.3,81,0.00,-SN,OVC,0.00,0.0,WeatherDisplay:10.37,2013-01-20 19:11:00,
2013-01-20 19:16:00,34.0,28.8,29.58,WNW,297,2.3,2.3,81,0.00,-SN,OVC,0.00,0.0,WeatherDisplay:10.37,2013-01-20 19:16:00,
2013-01-20 19:21:00,34.1,29.2,29.58,NNW,346,2.3,2.3,82,0.00,-SN,OVC,0.00,0.0,WeatherDisplay:10.37,2013-01-20 19:21:00,
2013-01-20 19:26:00,34.1,29.5,29.58,SE,127,0.0,0.0,83,0.00,-SN,OVC,0.00,0.0,WeatherDisplay:10.37,2013-01-20 19:26:00,
2013-01-20 19:31:00,34.0,29.7,29.58,SW,236,2.3,2.3,84,0.00,OVC,,0.00,0.0,WeatherDisplay:10.37,2013-01-20 19:31:00,
2013-01-20 19:36:00,33.9,29.6,29.58,NNW,340,3.5,3.5,84,0.00,OVC,,0.00,0.0,WeatherDisplay:10.37,2013-01-20 19:36:00,
2013-01-20 19:41:00,33.9,29.9,29.58,NW,305,1.2,1.2,85,0.00,OVC,,0.00,0.0,WeatherDisplay:10.37,2013-01-20 19:41:00,
2013-01-20 19:46:00,33.8,30.1,29.57,North,5,2.0,2.0,86,0.00,OVC,,0.00,0.0,WeatherDisplay:10.37,2013-01-20 19:46:00,
2013-01-20 19:51:00,33.8,30.1,29.57,SSW,212,3.5,3.5,86,0.00,OVC,,0.00,0.0,WeatherDisplay:10.37,2013-01-20 19:51:00,
2013-01-20 19:56:00,33.8,29.8,29.57,ESE,122,3.5,3.5,85,0.00,OVC,,0.00,0.0,WeatherDisplay:10.37,2013-01-20 19:56:00,
2013-01-20 20:05:00,33.9,29.9,29.57,SE,125,1.0,3.0,85,0.00,OVC,OVC,0.00,0.0,WeatherDisplay:10.37,2013-01-20 20:05:00,
2013-01-20 20:10:00,33.8,30.1,29.57,SE,144,0.0,3.0,86,0.00,OVC,OVC,0.00,0.0,WeatherDisplay:10.37,2013-01-20 20:10:00,
2013-01-20 20:15:00,33.7,30.0,29.57,South,191,0.0,2.0,86,0.00,OVC,OVC,0.00,0.0,WeatherDisplay:10.37,2013-01-20 20:15:00,
2013-01-20 20:20:00,33.7,30.0,29.57,SSE,150,3.5,3.5,86,0.00,-SN,OVC,0.00,0.0,WeatherDisplay:10.37,2013-01-20 20:20:00,
2013-01-20 20:25:00,33.7,30.3,29.57,SE,128,1.0,4.0,87,0.00,-SN,OVC,0.00,0.0,WeatherDisplay:10.37,2013-01-20 20:25:00,
2013-01-20 20:30:00,33.8,30.1,29.57,SE,135,1.0,4.0,86,0.00,-SN,OVC,0.00,0.0,WeatherDisplay:10.37,2013-01-20 20:30:00,
2013-01-20 20:35:00,33.8,30.1,29.57,SE,128,1.0,3.0,86,0.00,-SN,OVC,0.00,0.0,WeatherDisplay:10.37,2013-01-20 20:35:00,
2013-01-20 20:40:00,33.9,30.4,29.57,North,349,2.3,2.3,87,0.00,-SN,OVC,0.00,0.0,WeatherDisplay:10.37,2013-01-20 20:40:00,
2013-01-20 20:45:00,33.9,30.4,29.57,SW,228,0.0,2.0,87,0.00,-SN,OVC,0.00,0.0,WeatherDisplay:10.37,2013-01-20 20:45:00,
2013-01-20 20:50:00,33.9,30.1,29.57,East,94,0.0,2.0,86,0.00,-SN,OVC,0.00,0.0,WeatherDisplay:10.37,2013-01-20 20:50:00,
2013-01-20 20:55:00,33.9,30.2,29.57,NW,314,0.0,0.0,86,0.00,-SN,OVC,0.00,0.0,WeatherDisplay:10.37,2013-01-20 20:55:00,
2013-01-20 21:00:00,33.9,30.2,29.57,South,169,3.5,3.5,86,0.00,-SN,OVC,0.00,0.0,WeatherDisplay:10.37,2013-01-20 21:00:00,
2013-01-20 21:05:00,33.9,30.2,29.57,West,264,6.9,6.9,86,0.00,-SN,OVC,0.00,0.0,WeatherDisplay:10.37,2013-01-20 21:05:00,
2013-01-20 21:10:00,33.8,30.6,29.57,West,259,2.3,2.3,88,0.00,-SN,OVC,0.00,0.0,WeatherDisplay:10.37,2013-01-20 21:10:00,
2013-01-20 21:15:00,33.6,30.4,29.57,SE,126,1.2,1.2,88,0.00,-SN,OVC,0.00,0.0,WeatherDisplay:10.37,2013-01-20 21:15:00,
2013-01-20 21:20:00,33.5,30.6,29.57,West,274,2.3,2.3,89,0.00,-SN,OVC,0.00,0.0,WeatherDisplay:10.37,2013-01-20 21:20:00,
2013-01-20 21:25:00,33.5,30.9,29.57,ESE,104,2.3,2.3,90,0.00,-SN,OVC,0.00,0.0,WeatherDisplay:10.37,2013-01-20 21:25:00,
2013-01-20 21:30:00,33.3,30.7,29.57,WNW,297,2.3,2.3,90,0.00,-SN,OVC,0.00,0.0,WeatherDisplay:10.37,2013-01-20 21:30:00,
2013-01-20 21:35:00,33.3,30.7,29.57,NE,45,2.3,2.3,90,0.00,-SN,OVC,0.00,0.0,WeatherDisplay:10.37,2013-01-20 21:35:00,
2013-01-20 21:40:00,33.3,30.7,29.57,ESE,112,3.5,3.5,90,0.00,-SN,OVC,0.00,0.0,WeatherDisplay:10.37,2013-01-20 21:40:00,
2013-01-20 21:45:00,33.4,30.8,29.57,WSW,250,2.3,2.3,90,0.00,-SN,OVC,0.00,0.0,WeatherDisplay:10.37,2013-01-20 21:45:00,
2013-01-20 21:50:00,33.4,30.8,29.57,SE,138,3.5,3.5,90,0.00,-SN,OVC,0.00,0.0,WeatherDisplay:10.37,2013-01-20 21:50:00,
2013-01-20 21:55:00,33.4,30.8,29.57,NNW,330,2.3,2.3,90,0.00,-SN,OVC,0.00,0.0,WeatherDisplay:10.37,2013-01-20 21:55:00,
2013-01-20 22:00:00,33.3,31.0,29.57,NNW,328,1.2,1.2,91,0.00,-SN,OVC,0.00,0.0,WeatherDisplay:10.37,2013-01-20 22:00:00,
2013-01-20 22:05:00,33.3,30.7,29.57,NNW,333,3.0,3.0,90,0.00,-SN,OVC,0.00,0.0,WeatherDisplay:10.37,2013-01-20 22:05:00,
2013-01-20 22:10:00,33.4,30.8,29.57,SE,133,1.2,1.2,90,0.00,-SN,OVC,0.00,0.0,WeatherDisplay:10.37,2013-01-20 22:10:00,
2013-01-20 22:15:00,33.5,30.6,29.57,West,270,1.2,1.2,89,0.00,-SN,OVC,0.00,0.0,WeatherDisplay:10.37,2013-01-20 22:15:00,
2013-01-20 22:20:00,33.4,30.5,29.57,West,269,1.2,1.2,89,0.00,BKN,OVC,0.00,0.0,WeatherDisplay:10.37,2013-01-20 22:20:00,
2013-01-20 22:25:00,33.4,30.8,29.57,West,276,1.2,1.2,90,0.00,BKN,OVC,0.00,0.0,WeatherDisplay:10.37,2013-01-20 22:25:00,
2013-01-20 22:30:00,33.2,30.9,29.57,South,181,0.0,0.2,91,0.00,BKN,OVC,0.00,0.0,WeatherDisplay:10.37,2013-01-20 22:30:00,
2013-01-20 22:35:00,33.2,30.9,29.57,SE,134,1.2,1.2,91,0.00,BKN,OVC,0.00,0.0,WeatherDisplay:10.37,2013-01-20 22:35:00,
2013-01-20 22:40:00,33.2,30.6,29.57,WSW,243,1.2,1.2,90,0.00,BKN,OVC,0.00,0.0,WeatherDisplay:10.37,2013-01-20 22:40:00,
2013-01-20 22:45:00,33.2,30.6,29.57,SSE,155,3.5,3.5,90,0.00,BKN,OVC,0.00,0.0,WeatherDisplay:10.37,2013-01-20 22:45:00,
2013-01-20 22:50:00,33.2,30.6,29.57,WNW,301,2.3,2.3,90,0.00,BKN,OVC,0.00,0.0,WeatherDisplay:10.37,2013-01-20 22:50:00,
2013-01-20 22:55:00,33.2,30.6,29.56,SW,219,1.2,1.2,90,0.00,BKN,OVC,0.00,0.0,WeatherDisplay:10.37,2013-01-20 22:55:00,
2013-01-20 23:00:00,33.2,30.6,29.56,North,355,2.3,2.3,90,0.00,BKN,OVC,0.00,0.0,WeatherDisplay:10.37,2013-01-20 23:00:00,
2013-01-20 23:05:00,33.2,30.6,29.56,ESE,122,2.3,2.3,90,0.00,BKN,OVC,0.00,0.0,WeatherDisplay:10.37,2013-01-20 23:05:00,
2013-01-20 23:10:00,33.3,30.7,29.56,SE,131,1.2,1.2,90,0.00,BKN,OVC,0.00,0.0,WeatherDisplay:10.37,2013-01-20 23:10:00,
2013-01-20 23:15:00,33.3,30.7,29.57,East,101,2.3,2.3,90,0.00,BKN,OVC,0.00,0.0,WeatherDisplay:10.37,2013-01-20 23:15:00,
2013-01-20 23:20:00,33.3,30.7,29.56,ESE,118,4.6,4.6,90,0.00,BKN,OVC,0.00,0.0,WeatherDisplay:10.37,2013-01-20 23:20:00,
2013-01-20 23:25:00,33.3,30.7,29.56,South,170,0.0,0.0,90,0.00,BKN,OVC,0.00,0.0,WeatherDisplay:10.37,2013-01-20 23:25:00,
2013-01-20 23:30:00,33.3,30.7,29.56,NNW,347,1.2,1.2,90,0.00,BKN,OVC,0.00,0.0,WeatherDisplay:10.37,2013-01-20 23:30:00,
2013-01-20 23:35:00,33.4,30.5,29.57,WNW,297,2.3,2.3,89,0.00,BKN,OVC,0.00,0.0,WeatherDisplay:10.37,2013-01-20 23:35:00,
2013-01-20 23:40:00,33.5,30.6,29.56,NE,49,2.3,2.3,89,0.00,BKN,OVC,0.00,0.0,WeatherDisplay:10.37,2013-01-20 23:40:00,
2013-01-20 23:45:00,33.5,30.6,29.56,ESE,108,0.0,0.0,89,0.00,BKN,OVC,0.00,0.0,WeatherDisplay:10.37,2013-01-20 23:45:00,
2013-01-20 23:50:00,33.5,30.9,29.56,SE,131,1.2,1.2,90,0.00,BKN,OVC,0.00,0.0,WeatherDisplay:10.37,2013-01-20 23:50:00,
2013-01-20 23:55:00,33.4,30.8,29.56,NE,41,2.3,2.3,90,0.00,BKN,OVC,0.00,0.0,WeatherDisplay:10.37,2013-01-20 23:55:00,